Time;durP1;ratioP1;P1;durP2;ratioP2;P2;SDS_P1;SDS_P2;PMS_P1;PMS_P2;Temp;Humidity;BMP_temperature;BMP_pressure;BME280_temperature;BME280_humidity;BME280_pressure;Samples;Min_cycle;Max_cycle;Signal;HPM_P1;HPM_P2
2022/10/18 00:02:07;;;;;;;14.85;7.18;;;;;;;7.56;85.49;99666.25;5093916;28;20180;-61
2022/10/18 00:04:33;;;;;;;12.98;7.03;;;;;;;7.59;85.47;99671.13;5092581;28;20093;-61
2022/10/18 00:06:59;;;;;;;12.57;6.82;;;;;;;7.62;85.21;99666.25;5093786;28;20040;-62
2022/10/18 00:09:26;;;;;;;11.23;6.75;;;;;;;7.65;85.18;99659.75;5093881;28;20062;-61
2022/10/18 00:11:52;;;;;;;14.40;7.10;;;;;;;7.65;85.19;99676.38;5094087;28;20050;-61
2022/10/18 00:14:18;;;;;;;11.75;6.68;;;;;;;7.68;85.13;99661.97;5092327;28;20060;-61
2022/10/18 00:16:43;;;;;;;11.82;6.65;;;;;;;7.70;84.38;99636.94;5092832;28;20093;-60
2022/10/18 00:19:09;;;;;;;13.55;6.55;;;;;;;7.74;84.39;99637.34;5093984;28;20098;-61
2022/10/18 00:21:35;;;;;;;11.80;6.75;;;;;;;7.77;83.59;99644.84;5093875;28;20044;-62
2022/10/18 00:24:00;;;;;;;10.40;6.28;;;;;;;7.80;83.63;99640.97;5092301;28;20042;-61
2022/10/18 00:26:28;;;;;;;11.43;6.90;;;;;;;7.78;83.89;99650.94;5092101;28;20044;-62
2022/10/18 00:28:56;;;;;;;14.95;7.15;;;;;;;7.76;83.53;99627.38;5093722;28;20052;-60
2022/10/18 00:31:23;;;;;;;11.98;6.82;;;;;;;7.77;83.43;99634.28;5093517;28;20501;-62
2022/10/18 00:33:51;;;;;;;9.25;6.25;;;;;;;7.76;83.63;99632.66;5093618;28;20398;-61
2022/10/18 00:36:18;;;;;;;12.38;6.53;;;;;;;7.69;83.52;99634.53;5093498;28;20080;-62
2022/10/18 00:38:44;;;;;;;13.73;6.68;;;;;;;7.66;83.73;99629.69;5091936;28;20382;-61
2022/10/18 00:41:14;;;;;;;16.25;7.07;;;;;;;7.64;83.91;99621.97;5093544;28;20542;-61
2022/10/18 00:43:59;;;;;;;15.32;6.82;;;;;;;7.55;84.14;99611.88;5093376;28;20599;-62
2022/10/18 00:46:30;;;;;;;10.75;6.55;;;;;;;7.49;84.83;99609.06;5093121;28;20485;-60
2022/10/18 00:48:58;;;;;;;11.65;6.25;;;;;;;7.47;84.68;99616.41;5093311;28;20040;-60
2022/10/18 00:51:27;;;;;;;13.57;7.13;;;;;;;7.48;84.64;99601.38;5093055;28;20044;-61
2022/10/18 00:53:53;;;;;;;10.98;6.80;;;;;;;7.40;84.60;99597.16;5074820;28;20071;-60
2022/10/18 00:56:19;;;;;;;16.25;6.90;;;;;;;7.39;84.77;99585.00;5091363;28;20472;-62
2022/10/18 00:58:46;;;;;;;11.57;6.30;;;;;;;7.35;84.70;99602.25;5093141;28;20092;-61
2022/10/18 01:01:12;;;;;;;15.35;7.55;;;;;;;7.31;84.87;99597.63;5091721;28;20063;-60
2022/10/18 01:03:38;;;;;;;11.85;6.50;;;;;;;7.30;84.81;99601.28;5092971;28;20067;-62
2022/10/18 01:06:04;;;;;;;11.57;6.85;;;;;;;7.24;85.13;99598.47;5074728;28;20100;-61
2022/10/18 01:08:35;;;;;;;11.45;6.60;;;;;;;7.20;85.41;99602.53;5093208;28;20047;-61
2022/10/18 01:11:31;;;;;;;10.32;6.15;;;;;;;7.13;85.73;99606.22;5091064;28;20039;-60
2022/10/18 01:14:10;;;;;;;13.45;6.55;;;;;;;7.15;85.79;99606.84;5092683;28;20060;-62
2022/10/18 01:16:41;;;;;;;12.45;7.22;;;;;;;7.15;85.79;99593.66;5091287;28;20048;-61
2022/10/18 01:19:44;;;;;;;12.07;7.13;;;;;;;7.16;85.58;99593.44;5074315;28;20076;-60
2022/10/18 01:22:18;;;;;;;10.27;6.78;;;;;;;7.21;85.64;99603.34;5092394;28;20039;-61
2022/10/18 01:25:05;;;;;;;9.68;5.95;;;;;;;7.21;85.74;99603.34;5091221;28;20035;-61
2022/10/18 01:27:43;;;;;;;12.00;6.90;;;;;;;7.25;85.25;99594.00;5092602;28;20502;-60
2022/10/18 01:30:30;;;;;;;11.30;6.80;;;;;;;7.28;85.39;99585.66;5070561;28;20033;-62
2022/10/18 01:33:28;;;;;;;8.88;5.97;;;;;;;7.32;85.11;99586.03;5071997;28;20094;-61
2022/10/18 01:35:59;;;;;;;13.43;6.30;;;;;;;7.36;84.85;99581.97;5070270;28;20040;-60
2022/10/18 01:38:25;;;;;;;12.98;6.28;;;;;;;7.38;84.68;99572.84;5070931;28;20051;-61
2022/10/18 01:40:52;;;;;;;10.88;6.47;;;;;;;7.43;84.14;99580.91;5070357;28;20044;-60
2022/10/18 01:43:19;;;;;;;10.85;6.00;;;;;;;7.44;84.23;99573.78;5072165;28;20433;-61
2022/10/18 01:45:45;;;;;;;11.05;6.65;;;;;;;7.43;84.33;99564.28;5070485;28;20037;-61
2022/10/18 01:48:11;;;;;;;11.18;6.95;;;;;;;7.49;83.98;99564.22;5070755;28;20045;-62
2022/10/18 01:50:37;;;;;;;11.77;6.25;;;;;;;7.55;83.46;99569.69;5053599;28;20040;-61
2022/10/18 01:53:03;;;;;;;9.43;6.22;;;;;;;7.59;82.94;99573.50;5070639;28;20524;-62
2022/10/18 01:55:36;;;;;;;10.40;6.18;;;;;;;7.58;83.12;99564.78;5071828;28;20040;-62
2022/10/18 01:58:07;;;;;;;10.25;6.50;;;;;;;7.57;82.88;99557.91;5071830;28;20128;-61
2022/10/18 02:00:43;;;;;;;12.02;6.45;;;;;;;7.59;82.50;99558.50;5070389;28;20045;-61
2022/10/18 02:03:26;;;;;;;13.27;6.50;;;;;;;7.56;83.38;99552.81;5071905;28;20040;-61
2022/10/18 02:06:00;;;;;;;9.20;5.85;;;;;;;7.61;82.91;99553.81;5070266;28;20048;-61
2022/10/18 02:08:41;;;;;;;9.82;5.45;;;;;;;7.63;82.73;99556.25;5071750;28;20512;-60
2022/10/18 02:11:08;;;;;;;12.10;6.35;;;;;;;7.64;82.66;99549.94;5071432;28;20063;-62
2022/10/18 02:13:55;;;;;;;11.77;6.63;;;;;;;7.66;82.76;99553.19;5070125;28;20048;-61
2022/10/18 02:16:25;;;;;;;14.00;6.13;;;;;;;7.68;82.28;99551.94;5069958;28;20115;-62
2022/10/18 02:19:00;;;;;;;11.73;6.53;;;;;;;7.72;82.19;99553.13;5071679;28;20041;-62
2022/10/18 02:21:27;;;;;;;11.82;6.30;;;;;;;7.72;82.18;99542.56;5071277;28;20044;-60
2022/10/18 02:23:53;;;;;;;12.18;5.95;;;;;;;7.73;81.80;99538.09;5070038;28;20067;-60
2022/10/18 02:26:18;;;;;;;10.10;6.50;;;;;;;7.76;81.85;99535.03;5053092;28;20522;-61
2022/10/18 02:28:44;;;;;;;11.65;6.45;;;;;;;7.74;81.92;99529.97;5071456;28;20127;-61
2022/10/18 02:31:21;;;;;;;8.15;5.88;;;;;;;7.77;81.48;99531.38;5069874;28;20509;-61
2022/10/18 02:34:00;;;;;;;11.18;6.38;;;;;;;7.76;81.62;99521.03;5086816;28;20045;-61
2022/10/18 02:36:41;;;;;;;8.63;6.10;;;;;;;7.72;81.60;99520.66;5070084;28;20078;-59
2022/10/18 02:39:13;;;;;;;12.85;6.10;;;;;;;7.77;81.70;99520.81;5069585;28;20465;-61
2022/10/18 02:41:39;;;;;;;10.85;5.90;;;;;;;7.78;81.61;99509.22;5069931;28;20139;-62
2022/10/18 02:44:04;;;;;;;10.32;6.18;;;;;;;7.73;81.32;99501.97;5071518;28;20075;-62
2022/10/18 02:46:30;;;;;;;12.52;6.03;;;;;;;7.71;81.36;99503.22;5072317;28;20094;-60
2022/10/18 02:48:55;;;;;;;14.40;6.13;;;;;;;7.72;81.57;99499.53;5078915;28;20119;-60
2022/10/18 02:51:22;;;;;;;11.10;6.10;;;;;;;7.70;81.63;99486.56;5080730;28;20513;-60
2022/10/18 02:53:47;;;;;;;8.32;5.63;;;;;;;7.70;81.63;99485.75;5079913;28;20041;-61
2022/10/18 02:56:13;;;;;;;10.32;6.10;;;;;;;7.67;81.35;99480.91;5080991;28;20055;-61
2022/10/18 02:58:39;;;;;;;11.45;6.13;;;;;;;7.68;81.23;99475.44;5079340;28;20143;-61
2022/10/18 03:01:04;;;;;;;9.32;5.75;;;;;;;7.69;81.77;99486.78;5079798;28;20039;-61
2022/10/18 03:03:30;;;;;;;11.05;6.38;;;;;;;7.69;81.49;99473.59;5081927;28;20036;-61
2022/10/18 03:05:56;;;;;;;10.90;6.13;;;;;;;7.67;81.58;99467.72;5083290;28;20036;-61
2022/10/18 03:08:21;;;;;;;8.90;5.43;;;;;;;7.70;81.41;99470.72;5091256;28;20417;-61
2022/10/18 03:10:47;;;;;;;11.27;6.40;;;;;;;7.73;81.67;99469.47;5091310;28;20505;-61
2022/10/18 03:13:13;;;;;;;15.40;6.55;;;;;;;7.73;80.72;99458.94;5091156;28;20056;-60
2022/10/18 03:15:39;;;;;;;9.80;6.25;;;;;;;7.77;80.93;99459.31;5089759;28;20056;-62
2022/10/18 03:18:04;;;;;;;9.32;6.20;;;;;;;7.70;80.92;99446.97;5091242;28;20044;-62
2022/10/18 03:20:30;;;;;;;9.02;6.20;;;;;;;7.71;80.96;99445.16;5091326;28;20042;-62
2022/10/18 03:22:55;;;;;;;10.15;6.65;;;;;;;7.63;81.31;99438.31;5089631;28;20417;-61
2022/10/18 03:25:21;;;;;;;11.52;6.63;;;;;;;7.61;81.27;99443.00;5091001;28;20043;-61
2022/10/18 03:27:46;;;;;;;12.77;5.82;;;;;;;7.59;81.40;99428.41;5089460;28;20043;-61
2022/10/18 03:30:12;;;;;;;11.95;6.60;;;;;;;7.61;81.46;99429.81;5091008;28;20123;-61
2022/10/18 03:32:39;;;;;;;12.15;6.63;;;;;;;7.61;81.53;99429.81;5090936;28;20380;-60
2022/10/18 03:35:06;;;;;;;9.57;6.47;;;;;;;7.56;81.39;99432.31;5089522;28;20050;-61
2022/10/18 03:37:32;;;;;;;11.38;6.82;;;;;;;7.50;81.64;99417.34;5090984;28;20044;-61
2022/10/18 03:39:58;;;;;;;11.60;6.60;;;;;;;7.41;82.32;99406.28;5072621;28;20409;-62
2022/10/18 03:42:24;;;;;;;11.18;6.75;;;;;;;7.40;82.08;99402.00;5090888;28;20040;-61
2022/10/18 03:44:49;;;;;;;10.98;6.28;;;;;;;7.35;82.55;99406.31;5090858;28;20443;-62
2022/10/18 03:47:15;;;;;;;10.23;6.03;;;;;;;7.38;82.21;99401.44;5090772;28;20590;-61
2022/10/18 03:49:40;;;;;;;11.65;6.38;;;;;;;7.40;82.20;99402.00;5090730;28;20089;-62
2022/10/18 03:52:06;;;;;;;9.77;6.38;;;;;;;7.36;82.31;99389.47;5093668;28;20076;-62
2022/10/18 03:54:32;;;;;;;12.43;6.78;;;;;;;7.30;82.37;99380.59;5093395;28;20070;-61
2022/10/18 03:56:57;;;;;;;11.27;6.70;;;;;;;7.32;82.40;99380.38;5093822;28;20402;-63
2022/10/18 03:59:23;;;;;;;13.57;6.80;;;;;;;7.31;82.30;99382.19;5094265;28;20043;-61
2022/10/18 04:01:49;;;;;;;13.68;6.50;;;;;;;7.30;82.39;99375.31;5094252;28;20036;-60
2022/10/18 04:04:14;;;;;;;12.15;6.43;;;;;;;7.24;82.42;99384.09;5093003;28;20603;-60
2022/10/18 04:06:40;;;;;;;9.65;6.55;;;;;;;7.23;82.78;99364.00;5094098;28;20127;-59
2022/10/18 04:09:06;;;;;;;10.43;6.72;;;;;;;7.18;83.05;99363.88;5094302;28;20389;-61
2022/10/18 04:11:31;;;;;;;9.60;5.72;;;;;;;7.18;82.78;99361.22;5092710;28;20048;-61
2022/10/18 04:13:57;;;;;;;12.23;6.50;;;;;;;7.20;82.96;99356.53;5093637;28;20091;-61
2022/10/18 04:16:22;;;;;;;14.88;6.53;;;;;;;7.26;82.72;99353.84;5092564;28;20052;-62
2022/10/18 04:18:48;;;;;;;11.68;6.10;;;;;;;7.29;82.60;99344.69;5072262;28;20044;-62
2022/10/18 04:21:14;;;;;;;9.95;6.18;;;;;;;7.35;82.71;99345.66;5089329;28;20127;-62
2022/10/18 04:23:40;;;;;;;12.35;6.80;;;;;;;7.41;82.00;99352.69;5087274;28;20040;-62
2022/10/18 04:26:06;;;;;;;13.68;7.28;;;;;;;7.43;82.06;99342.75;5092647;28;20400;-61
2022/10/18 04:28:32;;;;;;;15.30;6.70;;;;;;;7.40;81.57;99341.34;5092205;28;20127;-61
2022/10/18 04:30:58;;;;;;;13.18;7.28;;;;;;;7.34;82.29;99339.56;5092499;28;20036;-60
2022/10/18 04:33:24;;;;;;;12.52;6.65;;;;;;;7.38;82.23;99327.59;5093549;28;20508;-60
2022/10/18 04:35:51;;;;;;;12.95;7.07;;;;;;;7.35;82.05;99322.72;5093339;28;20051;-62
2022/10/18 04:38:17;;;;;;;13.18;7.07;;;;;;;7.44;82.01;99323.25;5092126;28;20630;-62
2022/10/18 04:40:42;;;;;;;14.30;6.50;;;;;;;7.49;81.70;99312.84;5091952;28;20459;-61
2022/10/18 04:43:08;;;;;;;14.00;7.35;;;;;;;7.56;81.54;99328.59;5093393;28;20398;-61
2022/10/18 04:45:34;;;;;;;10.35;6.70;;;;;;;7.57;81.21;99312.56;5093362;28;20089;-60
2022/10/18 04:47:59;;;;;;;11.35;7.13;;;;;;;7.62;81.32;99314.56;5071556;28;20095;-61
2022/10/18 04:50:25;;;;;;;13.13;6.97;;;;;;;7.65;81.06;99314.13;5071473;28;20128;-62
2022/10/18 04:52:52;;;;;;;11.80;6.25;;;;;;;7.69;80.80;99318.72;5080934;28;20040;-60
2022/10/18 04:55:18;;;;;;;13.48;6.63;;;;;;;7.69;80.92;99312.66;5091543;28;20097;-60
2022/10/18 04:57:44;;;;;;;11.35;6.93;;;;;;;7.76;80.98;99307.28;5092817;28;20054;-61
2022/10/18 05:00:10;;;;;;;11.68;7.25;;;;;;;7.77;81.23;99311.56;5093051;28;20040;-61
2022/10/18 05:02:36;;;;;;;11.07;7.10;;;;;;;7.74;80.44;99302.25;5092499;28;20051;-61
2022/10/18 05:05:02;;;;;;;13.65;7.68;;;;;;;7.82;80.77;99316.97;5092872;28;20036;-60
2022/10/18 05:07:29;;;;;;;12.05;6.88;;;;;;;7.82;80.25;99317.75;5092743;28;20481;-60
2022/10/18 05:09:55;;;;;;;11.40;7.18;;;;;;;7.76;80.77;99316.00;5091838;28;20059;-62
2022/10/18 05:12:21;;;;;;;11.18;6.70;;;;;;;7.85;80.76;99321.78;5092678;28;20043;-61
2022/10/18 05:14:47;;;;;;;13.20;7.80;;;;;;;7.86;80.50;99321.59;5074839;28;20067;-60
2022/10/18 05:17:13;;;;;;;11.13;6.97;;;;;;;7.90;80.22;99308.75;5092263;28;20036;-61
2022/10/18 05:19:38;;;;;;;11.05;6.75;;;;;;;7.96;80.08;99329.78;5074388;28;20043;-61
2022/10/18 05:22:04;;;;;;;13.32;6.70;;;;;;;7.94;80.31;99338.94;5092547;28;20044;-61
2022/10/18 05:24:30;;;;;;;15.23;7.68;;;;;;;7.84;80.05;99314.91;5092847;28;20069;-61
2022/10/18 05:26:56;;;;;;;11.32;7.38;;;;;;;8.02;80.19;99327.28;5091001;28;20031;-62
2022/10/18 05:29:22;;;;;;;15.43;7.82;;;;;;;8.02;79.95;99333.38;5092813;28;20050;-64
2022/10/18 05:31:48;;;;;;;14.48;7.90;;;;;;;7.97;79.61;99336.69;5090873;28;20122;-64
2022/10/18 05:34:14;;;;;;;11.23;7.68;;;;;;;8.01;80.95;99333.59;5092586;28;20483;-64
2022/10/18 05:36:39;;;;;;;13.20;7.18;;;;;;;7.91;80.93;99321.75;5092105;28;20128;-65
2022/10/18 05:39:05;;;;;;;13.43;6.93;;;;;;;7.92;80.36;99330.47;5091037;28;20257;-64
2022/10/18 05:41:31;;;;;;;14.95;7.97;;;;;;;7.92;80.67;99331.25;5090507;28;20074;-65
2022/10/18 05:43:57;;;;;;;13.43;7.72;;;;;;;7.99;80.27;99320.63;5092466;28;20134;-65
2022/10/18 05:46:22;;;;;;;11.57;7.10;;;;;;;8.05;80.19;99321.56;5092421;28;20043;-63
2022/10/18 05:48:49;;;;;;;13.23;7.32;;;;;;;8.14;80.22;99328.16;5090738;28;20040;-65
2022/10/18 05:51:16;;;;;;;14.27;7.35;;;;;;;8.18;79.97;99330.13;5090736;28;20078;-65
2022/10/18 05:53:42;;;;;;;12.23;7.03;;;;;;;8.16;79.60;99315.53;5092223;28;20089;-62
2022/10/18 05:56:10;;;;;;;12.50;7.78;;;;;;;8.16;79.86;99315.53;5091979;28;20043;-63
2022/10/18 05:58:36;;;;;;;13.60;7.93;;;;;;;8.16;79.92;99305.78;5091651;28;20134;-62
2022/10/18 06:01:03;;;;;;;11.80;7.40;;;;;;;8.12;79.88;99306.47;5090890;28;20468;-63
2022/10/18 06:03:29;;;;;;;14.40;8.23;;;;;;;8.13;79.96;99298.31;5091643;28;20050;-61
2022/10/18 06:06:06;;;;;;;16.15;8.38;;;;;;;8.08;80.02;99284.97;5090482;28;20501;-62
2022/10/18 06:08:33;;;;;;;15.98;7.93;;;;;;;8.11;80.15;99284.50;5073628;28;20086;-62
2022/10/18 06:10:59;;;;;;;16.80;8.43;;;;;;;8.09;80.05;99275.19;5091695;28;20516;-61
2022/10/18 06:13:25;;;;;;;15.02;8.23;;;;;;;8.01;80.68;99278.16;5089365;28;20048;-60
2022/10/18 06:15:55;;;;;;;14.93;8.45;;;;;;;8.10;80.30;99269.72;5087858;28;20888;-62
2022/10/18 06:18:21;;;;;;;16.30;8.35;;;;;;;8.15;80.19;99250.56;5088500;28;20036;-62
2022/10/18 06:20:46;;;;;;;12.45;7.63;;;;;;;8.25;80.11;99247.38;5086629;28;20040;-61
2022/10/18 06:23:12;;;;;;;12.82;7.70;;;;;;;8.29;79.65;99251.16;5088416;28;20044;-61
2022/10/18 06:25:38;;;;;;;15.82;8.20;;;;;;;8.36;80.20;99246.59;5070764;28;20047;-62
2022/10/18 06:28:04;;;;;;;16.30;8.85;;;;;;;8.34;79.76;99232.81;5086073;28;20040;-61
2022/10/18 06:30:30;;;;;;;15.30;8.55;;;;;;;8.33;80.80;99208.25;5088152;28;20130;-62
2022/10/18 06:33:00;;;;;;;12.52;7.68;;;;;;;8.26;80.26;99199.59;5069546;28;20040;-60
2022/10/18 06:35:25;;;;;;;15.80;9.85;;;;;;;8.23;80.60;99189.50;5086167;28;20056;-61
2022/10/18 06:37:51;;;;;;;16.08;8.88;;;;;;;8.26;80.80;99170.56;5089997;28;20051;-61
2022/10/18 06:40:16;;;;;;;18.05;10.00;;;;;;;8.26;81.40;99167.91;5072135;28;20205;-61
2022/10/18 06:42:42;;;;;;;17.52;9.63;;;;;;;8.33;82.01;99159.91;5085652;28;20059;-62
2022/10/18 06:45:10;;;;;;;16.15;9.40;;;;;;;8.26;81.83;99127.50;5088353;28;20039;-62
2022/10/18 06:47:36;;;;;;;17.05;9.85;;;;;;;8.24;82.83;99134.88;5089360;28;20097;-61
2022/10/18 06:50:01;;;;;;;15.75;9.35;;;;;;;8.23;82.68;99131.41;5067012;28;20064;-61
2022/10/18 06:52:29;;;;;;;14.73;8.88;;;;;;;8.20;83.15;99126.56;5068972;28;20393;-61
2022/10/18 06:54:54;;;;;;;20.08;9.60;;;;;;;8.15;82.73;99121.19;5084030;28;20493;-60
2022/10/18 06:57:20;;;;;;;17.85;9.20;;;;;;;8.09;85.57;99093.03;5087580;28;20090;-61
2022/10/18 06:59:46;;;;;;;18.67;9.75;;;;;;;8.13;84.35;99091.56;5086799;28;20098;-62
2022/10/18 07:02:16;;;;;;;17.25;10.02;;;;;;;8.09;84.69;99083.31;5089503;28;20048;-60
2022/10/18 07:04:42;;;;;;;15.57;10.02;;;;;;;8.02;84.89;99077.31;5087287;28;20150;-61
2022/10/18 07:07:08;;;;;;;17.33;9.82;;;;;;;8.02;86.01;99071.25;5086430;28;20067;-61
2022/10/18 07:09:34;;;;;;;20.95;10.98;;;;;;;8.02;87.45;99040.38;5089474;28;20489;-63
2022/10/18 07:12:00;;;;;;;21.40;10.32;;;;;;;8.10;89.48;99050.59;5087175;28;20036;-60
2022/10/18 07:14:26;;;;;;;20.35;9.60;;;;;;;8.14;88.32;99043.00;5086643;28;20052;-60
2022/10/18 07:16:51;;;;;;;17.23;9.68;;;;;;;8.19;87.74;99048.41;5086458;28;20052;-59
2022/10/18 07:19:18;;;;;;;18.67;11.27;;;;;;;8.13;87.11;99031.66;5088270;28;20101;-61
2022/10/18 07:21:44;;;;;;;19.17;10.05;;;;;;;8.16;87.15;99052.31;5085757;28;20421;-61
2022/10/18 07:24:09;;;;;;;17.73;10.98;;;;;;;8.17;87.30;99045.19;5087004;28;20615;-61
2022/10/18 07:26:35;;;;;;;20.65;10.20;;;;;;;8.12;87.38;99019.50;5089406;28;20075;-62
2022/10/18 07:29:07;;;;;;;17.35;9.55;;;;;;;8.18;88.27;99007.22;5075635;28;20040;-60
2022/10/18 07:31:33;;;;;;;21.15;10.90;;;;;;;8.23;88.76;98980.09;5069831;28;20043;-61
2022/10/18 07:33:59;;;;;;;17.45;10.43;;;;;;;8.27;87.85;98954.84;5078640;28;20109;-61
2022/10/18 07:36:25;;;;;;;18.70;10.77;;;;;;;8.29;86.12;98931.63;5091174;28;20036;-61
2022/10/18 07:38:51;;;;;;;18.80;10.80;;;;;;;8.29;85.79;98924.50;5091334;28;20478;-61
2022/10/18 07:41:17;;;;;;;21.10;11.82;;;;;;;8.28;86.39;98907.06;5083524;28;20314;-61
2022/10/18 07:43:45;;;;;;;26.77;13.75;;;;;;;8.35;85.58;98907.75;5083012;28;20052;-60
2022/10/18 07:46:11;;;;;;;24.88;13.70;;;;;;;8.37;85.64;98894.31;5079633;28;20063;-60
2022/10/18 07:48:37;;;;;;;19.65;11.18;;;;;;;8.39;84.98;98879.84;5082449;28;20557;-60
2022/10/18 07:51:03;;;;;;;18.90;11.43;;;;;;;8.44;85.27;98871.22;5079772;28;20036;-59
2022/10/18 07:53:29;;;;;;;20.30;11.07;;;;;;;8.42;84.70;98857.47;5090005;28;20481;-62
2022/10/18 07:55:59;;;;;;;20.58;11.38;;;;;;;8.45;84.52;98859.63;5090936;28;20421;-62
2022/10/18 07:58:25;;;;;;;23.85;12.32;;;;;;;8.47;84.57;98854.09;5089319;28;20055;-61
2022/10/18 08:00:51;;;;;;;24.23;12.23;;;;;;;8.31;84.95;98830.03;5089063;28;20048;-63
2022/10/18 08:03:17;;;;;;;21.77;12.55;;;;;;;8.36;85.59;98829.31;5090254;28;20482;-62
2022/10/18 08:05:43;;;;;;;22.40;11.60;;;;;;;8.33;85.53;98816.59;5092058;28;20036;-62
2022/10/18 08:08:08;;;;;;;27.02;13.00;;;;;;;8.30;85.96;98788.81;5091708;28;20144;-62
2022/10/18 08:10:34;;;;;;;18.70;11.50;;;;;;;8.30;86.26;98777.47;5089336;28;20097;-62
2022/10/18 08:13:00;;;;;;;21.48;11.80;;;;;;;8.27;85.70;98741.75;5090128;28;20101;-61
2022/10/18 08:15:26;;;;;;;18.98;11.02;;;;;;;8.25;86.00;98708.72;5091397;28;20059;-62
2022/10/18 08:17:51;;;;;;;23.98;11.57;;;;;;;8.20;86.36;98698.84;5089211;28;20040;-60
2022/10/18 08:20:17;;;;;;;20.73;12.18;;;;;;;8.19;85.91;98681.44;5088162;28;20044;-61
2022/10/18 08:22:43;;;;;;;22.95;12.48;;;;;;;8.20;85.76;98680.38;5088478;28;20043;-61
2022/10/18 08:25:08;;;;;;;23.55;12.18;;;;;;;8.20;86.23;98698.84;5088798;28;20044;-60
2022/10/18 08:27:34;;;;;;;23.45;12.98;;;;;;;8.19;86.06;98670.88;5090272;28;20568;-61
2022/10/18 08:30:01;;;;;;;27.00;13.45;;;;;;;8.13;85.98;98638.31;5089758;28;20051;-62
2022/10/18 08:32:29;;;;;;;22.65;13.40;;;;;;;8.18;86.06;98624.41;5089016;28;20552;-61
2022/10/18 08:34:57;;;;;;;26.17;13.10;;;;;;;8.22;86.46;98619.44;5090004;28;20132;-61
2022/10/18 08:37:22;;;;;;;22.05;12.90;;;;;;;8.30;87.45;98611.09;5090247;28;20122;-61
2022/10/18 08:39:48;;;;;;;22.27;12.18;;;;;;;8.31;86.02;98597.66;5091185;28;20051;-60
2022/10/18 08:42:23;;;;;;;24.67;11.70;;;;;;;8.29;85.40;98588.38;5088152;28;20047;-60
2022/10/18 08:44:50;;;;;;;20.95;11.43;;;;;;;8.22;85.46;98585.09;5092265;28;20036;-62
2022/10/18 08:47:21;;;;;;;19.33;10.95;;;;;;;8.23;86.16;98584.84;5091665;28;20036;-61
2022/10/18 08:49:54;;;;;;;20.27;10.88;;;;;;;8.27;86.86;98620.31;5072344;28;20036;-61
2022/10/18 08:52:32;;;;;;;22.40;11.02;;;;;;;8.32;86.83;98622.22;5089359;28;20040;-62
2022/10/18 08:55:02;;;;;;;23.88;11.73;;;;;;;8.39;89.10;98617.63;5088648;28;20409;-60
2022/10/18 08:57:30;;;;;;;17.85;10.77;;;;;;;8.43;89.50;98624.00;5088611;28;20106;-61
2022/10/18 08:59:55;;;;;;;22.15;11.95;;;;;;;8.37;88.26;98633.66;5088476;28;20066;-60
2022/10/18 09:02:51;;;;;;;21.50;11.60;;;;;;;8.50;91.09;98629.09;5090631;28;20633;-62
2022/10/18 09:05:33;;;;;;;23.65;11.30;;;;;;;8.60;89.45;98629.28;5089276;28;20048;-61
2022/10/18 09:08:09;;;;;;;24.55;13.23;;;;;;;8.73;89.05;98636.84;5086857;28;20509;-62
2022/10/18 09:10:40;;;;;;;18.90;11.82;;;;;;;8.80;89.17;98629.53;5088079;28;20153;-61
2022/10/18 09:13:12;;;;;;;19.95;11.27;;;;;;;8.80;85.93;98611.06;5083049;28;20086;-61
2022/10/18 09:15:58;;;;;;;19.65;11.02;;;;;;;8.83;87.22;98604.47;5090183;28;20070;-61
2022/10/18 09:18:49;;;;;;;21.55;11.43;;;;;;;8.82;85.77;98584.38;5080086;28;20044;-61
2022/10/18 09:21:21;;;;;;;22.85;11.85;;;;;;;8.75;85.55;98573.19;5077134;28;20072;-62
2022/10/18 09:24:02;;;;;;;22.70;12.52;;;;;;;8.69;85.90;98569.69;5075084;28;20105;-63
2022/10/18 09:26:32;;;;;;;25.23;12.48;;;;;;;8.74;87.45;98568.97;5089583;28;20048;-61
2022/10/18 09:28:57;;;;;;;22.15;12.68;;;;;;;8.82;87.30;98553.47;5077605;28;20440;-61
2022/10/18 09:31:23;;;;;;;23.08;12.25;;;;;;;8.90;86.27;98535.56;5088493;28;20041;-59
2022/10/18 09:33:57;;;;;;;19.75;10.90;;;;;;;8.93;85.92;98537.72;5080993;28;20393;-60
2022/10/18 09:36:26;;;;;;;21.10;12.63;;;;;;;8.93;86.31;98537.72;5090608;28;20044;-62
2022/10/18 09:38:56;;;;;;;22.02;11.88;;;;;;;8.94;85.60;98524.28;5087777;28;20044;-60
2022/10/18 09:41:23;;;;;;;;;;;;;;;9.01;86.98;98516.94;5090695;28;20046;-61
2022/10/18 09:43:49;;;;;;;22.55;12.15;;;;;;;9.05;85.44;98509.31;5063130;28;20023;-62
2022/10/18 09:46:18;;;;;;;22.17;13.02;;;;;;;9.10;85.79;98504.06;5069051;28;20417;-62
2022/10/18 09:49:03;;;;;;;24.73;12.45;;;;;;;9.13;85.88;98498.28;5039171;28;20109;-62
2022/10/18 09:51:33;;;;;;;21.55;12.52;;;;;;;9.15;86.04;98487.44;5068656;28;20029;-61
2022/10/18 09:54:04;;;;;;;22.13;12.35;;;;;;;9.15;86.62;98469.75;5082488;28;20044;-62
2022/10/18 09:56:46;;;;;;;16.58;11.18;;;;;;;9.18;86.84;98466.63;5086944;28;20055;-61
2022/10/18 09:59:22;;;;;;;17.55;9.98;;;;;;;9.19;86.38;98456.84;5089196;28;20062;-61
2022/10/18 10:01:48;;;;;;;14.15;9.48;;;;;;;9.14;86.32;98457.56;5071947;28;20135;-61
2022/10/18 10:04:14;;;;;;;17.02;10.10;;;;;;;9.14;86.66;98451.50;5075813;28;20135;-61
2022/10/18 10:06:49;;;;;;;15.05;10.20;;;;;;;9.24;87.21;98441.81;5090723;28;20131;-62
2022/10/18 10:09:16;;;;;;;16.05;10.00;;;;;;;9.30;87.03;98446.09;5090386;28;20044;-62
2022/10/18 10:11:47;;;;;;;16.35;8.50;;;;;;;9.37;86.43;98437.16;5088151;28;20039;-62
2022/10/18 10:14:21;;;;;;;14.60;8.50;;;;;;;9.40;86.66;98432.16;5088223;28;20113;-61
2022/10/18 10:17:04;;;;;;;14.43;8.43;;;;;;;9.41;86.75;98422.34;5087319;28;20055;-61
2022/10/18 10:19:51;;;;;;;12.35;8.30;;;;;;;9.39;86.37;98414.69;5087902;28;20048;-60
2022/10/18 10:22:26;;;;;;;15.02;8.63;;;;;;;9.49;89.03;98416.59;5087892;28;20069;-61
2022/10/18 10:24:53;;;;;;;13.73;8.52;;;;;;;9.58;88.32;98422.22;5089855;28;20044;-61
2022/10/18 10:27:44;;;;;;;13.05;8.15;;;;;;;9.54;86.56;98419.28;5086103;28;20040;-62
2022/10/18 10:30:24;;;;;;;;;;;;;;;9.46;86.55;98407.31;5066139;28;20179;-62
2022/10/18 10:32:52;;;;;;;12.88;8.15;;;;;;;9.50;86.01;98407.59;5067628;28;19924;-63
2022/10/18 10:35:33;;;;;;;13.93;9.05;;;;;;;9.55;87.30;98399.72;5078797;28;20125;-61
2022/10/18 10:37:59;;;;;;;13.32;8.50;;;;;;;9.69;88.31;98403.50;5087561;28;20529;-63
2022/10/18 10:40:29;;;;;;;13.32;8.15;;;;;;;9.71;86.56;98398.78;5086348;28;20044;-61
2022/10/18 10:43:17;;;;;;;11.63;7.70;;;;;;;9.76;86.46;98396.16;5069890;28;20048;-59
2022/10/18 10:45:54;;;;;;;12.20;7.95;;;;;;;9.79;86.27;98397.47;5086289;28;20425;-60
2022/10/18 10:48:20;;;;;;;12.68;7.57;;;;;;;9.80;87.23;98388.50;5078045;28;20045;-61
2022/10/18 10:50:54;;;;;;;10.98;6.78;;;;;;;9.82;85.88;98393.53;5062378;28;20105;-62
2022/10/18 10:53:28;;;;;;;12.07;7.38;;;;;;;9.76;86.45;98390.88;5066264;28;20059;-62
2022/10/18 10:55:55;;;;;;;10.52;7.15;;;;;;;9.78;87.11;98375.50;5084509;28;20044;-60
2022/10/18 10:58:21;;;;;;;13.15;7.35;;;;;;;9.85;86.80;98363.91;5090194;28;20040;-60
2022/10/18 11:00:47;;;;;;;12.45;8.00;;;;;;;9.89;87.15;98359.69;5091565;28;20044;-59
2022/10/18 11:03:17;;;;;;;13.27;8.07;;;;;;;9.96;87.19;98354.94;5094210;28;20133;-60
2022/10/18 11:05:47;;;;;;;;;;;;;;;10.03;87.02;98363.47;5091928;28;20046;-60
2022/10/18 11:08:20;;;;;;;11.18;7.30;;;;;;;10.05;87.17;98363.19;5093674;28;19924;-62
2022/10/18 11:11:10;;;;;;;10.63;7.18;;;;;;;10.13;87.46;98368.78;5091808;28;20059;-61
2022/10/18 11:13:41;;;;;;;11.85;7.75;;;;;;;10.16;87.15;98365.63;5092853;28;20083;-60
2022/10/18 11:16:26;;;;;;;12.15;8.38;;;;;;;10.20;86.97;98355.31;5091618;28;20071;-61
2022/10/18 11:18:52;;;;;;;11.23;7.72;;;;;;;10.27;87.87;98363.84;5094738;28;20044;-61
2022/10/18 11:21:24;;;;;;;9.93;7.45;;;;;;;10.21;87.00;98362.22;5092694;28;20079;-62
2022/10/18 11:23:50;;;;;;;12.57;8.68;;;;;;;10.25;87.38;98363.28;5093092;28;20504;-60
2022/10/18 11:26:26;;;;;;;13.70;8.60;;;;;;;10.29;87.97;98359.06;5093148;28;20036;-63
2022/10/18 11:29:29;;;;;;;12.55;8.40;;;;;;;10.35;87.53;98355.41;5091923;28;20450;-62
2022/10/18 11:32:17;;;;;;;12.73;8.07;;;;;;;10.39;87.35;98358.31;5089681;28;20048;-62
2022/10/18 11:34:56;;;;;;;13.48;8.50;;;;;;;10.44;87.67;98356.47;5092757;28;20099;-61
2022/10/18 11:37:28;;;;;;;15.88;8.85;;;;;;;10.51;87.84;98352.78;5092588;28;20489;-60
2022/10/18 11:40:12;;;;;;;12.10;8.52;;;;;;;10.59;87.97;98355.72;5091603;28;20461;-60
2022/10/18 11:43:15;;;;;;;11.88;9.20;;;;;;;10.65;87.70;98353.88;5078604;28;20078;-62